Terminal Aerodrome Forecast
Issued by NWS

Home | Current Version | Previous Version | Text Only | Print | Product List | Glossary On
Versions: 1 2 3 4 5 6 7 8 9 10 11 12 13 14 15 16 17 18 19
317
FTUS46 KSTO 270546 AAB
TAFRBL
TAF AMD
KRBL 270546Z 2706/2806 VRB05KT P6SM VCSH OVC015
     FM270800 VRB04KT P6SM OVC025
     FM271800 VRB05KT P6SM SCT025 BKN050
     FM272200 32008KT P6SM SCT030=

USA.gov is the U.S. government's official web portal to all federal, state and local government web resources and services.